sensor_id;sensor_type;location;lat;lon;timestamp;P1;durP1;ratioP1;P2;durP2;ratioP2
80334;SDS011;69653;52.674;13.574;2023-10-08T00:01:07;5.75;;;1.70;;
80334;SDS011;69653;52.674;13.574;2023-10-08T00:03:36;6.85;;;1.70;;
80334;SDS011;69653;52.674;13.574;2023-10-08T00:06:03;5.18;;;1.48;;
80334;SDS011;69653;52.674;13.574;2023-10-08T00:08:31;5.18;;;1.58;;
80334;SDS011;69653;52.674;13.574;2023-10-08T00:10:59;5.72;;;1.38;;
80334;SDS011;69653;52.674;13.574;2023-10-08T00:13:31;6.57;;;1.73;;
80334;SDS011;69653;52.674;13.574;2023-10-08T00:15:56;5.45;;;1.52;;
80334;SDS011;69653;52.674;13.574;2023-10-08T00:18:22;4.43;;;1.53;;
80334;SDS011;69653;52.674;13.574;2023-10-08T00:20:49;4.55;;;1.58;;
80334;SDS011;69653;52.674;13.574;2023-10-08T00:23:40;5.43;;;1.60;;
80334;SDS011;69653;52.674;13.574;2023-10-08T00:26:17;6.25;;;1.48;;
80334;SDS011;69653;52.674;13.574;2023-10-08T00:28:45;9.43;;;1.45;;
80334;SDS011;69653;52.674;13.574;2023-10-08T00:31:13;7.03;;;1.65;;
80334;SDS011;69653;52.674;13.574;2023-10-08T00:33:42;5.97;;;1.85;;
80334;SDS011;69653;52.674;13.574;2023-10-08T00:36:09;8.32;;;1.90;;
80334;SDS011;69653;52.674;13.574;2023-10-08T00:38:47;6.80;;;1.48;;
80334;SDS011;69653;52.674;13.574;2023-10-08T00:41:25;6.55;;;1.80;;
80334;SDS011;69653;52.674;13.574;2023-10-08T00:43:55;9.15;;;1.92;;
80334;SDS011;69653;52.674;13.574;2023-10-08T00:46:22;7.78;;;1.60;;
80334;SDS011;69653;52.674;13.574;2023-10-08T00:48:55;8.75;;;1.55;;
80334;SDS011;69653;52.674;13.574;2023-10-08T00:51:22;5.72;;;1.38;;
80334;SDS011;69653;52.674;13.574;2023-10-08T00:53:54;6.47;;;2.10;;
80334;SDS011;69653;52.674;13.574;2023-10-08T00:56:27;10.38;;;2.38;;
80334;SDS011;69653;52.674;13.574;2023-10-08T00:59:13;5.80;;;1.60;;
80334;SDS011;69653;52.674;13.574;2023-10-08T01:01:42;6.05;;;1.80;;
80334;SDS011;69653;52.674;13.574;2023-10-08T01:04:15;6.35;;;1.55;;
80334;SDS011;69653;52.674;13.574;2023-10-08T01:06:52;7.95;;;2.30;;
80334;SDS011;69653;52.674;13.574;2023-10-08T01:09:21;5.50;;;1.40;;
80334;SDS011;69653;52.674;13.574;2023-10-08T01:14:43;8.95;;;1.98;;
80334;SDS011;69653;52.674;13.574;2023-10-08T01:17:11;7.45;;;2.15;;
80334;SDS011;69653;52.674;13.574;2023-10-08T01:19:41;7.93;;;1.60;;
80334;SDS011;69653;52.674;13.574;2023-10-08T01:22:16;6.53;;;1.67;;
80334;SDS011;69653;52.674;13.574;2023-10-08T01:24:43;5.43;;;1.70;;
80334;SDS011;69653;52.674;13.574;2023-10-08T01:27:10;9.68;;;1.65;;
80334;SDS011;69653;52.674;13.574;2023-10-08T01:29:40;8.07;;;1.70;;
80334;SDS011;69653;52.674;13.574;2023-10-08T01:32:08;10.48;;;2.28;;
80334;SDS011;69653;52.674;13.574;2023-10-08T01:34:36;7.35;;;1.88;;
80334;SDS011;69653;52.674;13.574;2023-10-08T01:37:02;4.55;;;1.60;;
80334;SDS011;69653;52.674;13.574;2023-10-08T01:39:34;6.40;;;2.08;;
80334;SDS011;69653;52.674;13.574;2023-10-08T01:42:01;5.90;;;1.60;;
80334;SDS011;69653;52.674;13.574;2023-10-08T01:44:26;6.27;;;2.00;;
80334;SDS011;69653;52.674;13.574;2023-10-08T01:46:53;9.73;;;1.83;;
80334;SDS011;69653;52.674;13.574;2023-10-08T01:49:22;7.13;;;1.73;;
80334;SDS011;69653;52.674;13.574;2023-10-08T01:51:51;7.07;;;1.92;;
80334;SDS011;69653;52.674;13.574;2023-10-08T01:54:19;7.47;;;1.75;;
80334;SDS011;69653;52.674;13.574;2023-10-08T01:56:46;8.55;;;1.83;;
80334;SDS011;69653;52.674;13.574;2023-10-08T01:59:14;5.97;;;1.42;;
80334;SDS011;69653;52.674;13.574;2023-10-08T02:01:41;6.38;;;1.65;;
80334;SDS011;69653;52.674;13.574;2023-10-08T02:04:07;9.80;;;1.98;;
80334;SDS011;69653;52.674;13.574;2023-10-08T02:06:34;6.15;;;1.77;;
80334;SDS011;69653;52.674;13.574;2023-10-08T02:09:01;6.05;;;2.05;;
80334;SDS011;69653;52.674;13.574;2023-10-08T02:11:40;8.50;;;2.05;;
80334;SDS011;69653;52.674;13.574;2023-10-08T02:14:08;6.32;;;2.35;;
80334;SDS011;69653;52.674;13.574;2023-10-08T02:16:33;8.40;;;1.90;;
80334;SDS011;69653;52.674;13.574;2023-10-08T02:18:59;8.50;;;1.90;;
80334;SDS011;69653;52.674;13.574;2023-10-08T02:21:24;8.38;;;2.03;;
80334;SDS011;69653;52.674;13.574;2023-10-08T02:23:50;8.82;;;2.58;;
80334;SDS011;69653;52.674;13.574;2023-10-08T02:26:17;7.65;;;2.67;;
80334;SDS011;69653;52.674;13.574;2023-10-08T02:28:44;9.57;;;2.10;;
80334;SDS011;69653;52.674;13.574;2023-10-08T02:31:10;6.18;;;2.03;;
80334;SDS011;69653;52.674;13.574;2023-10-08T02:33:35;8.73;;;2.40;;
80334;SDS011;69653;52.674;13.574;2023-10-08T02:36:02;8.23;;;2.67;;
80334;SDS011;69653;52.674;13.574;2023-10-08T02:38:29;8.27;;;1.77;;
80334;SDS011;69653;52.674;13.574;2023-10-08T02:40:55;7.43;;;2.00;;
80334;SDS011;69653;52.674;13.574;2023-10-08T02:43:21;11.00;;;2.67;;
80334;SDS011;69653;52.674;13.574;2023-10-08T02:45:48;7.68;;;2.28;;
80334;SDS011;69653;52.674;13.574;2023-10-08T02:48:14;7.68;;;2.72;;
80334;SDS011;69653;52.674;13.574;2023-10-08T02:50:42;6.60;;;1.83;;
80334;SDS011;69653;52.674;13.574;2023-10-08T02:53:09;7.25;;;2.00;;
80334;SDS011;69653;52.674;13.574;2023-10-08T02:55:40;14.05;;;2.58;;
80334;SDS011;69653;52.674;13.574;2023-10-08T02:58:09;7.75;;;2.17;;
80334;SDS011;69653;52.674;13.574;2023-10-08T03:00:40;7.78;;;1.75;;
80334;SDS011;69653;52.674;13.574;2023-10-08T03:03:08;7.20;;;2.58;;
80334;SDS011;69653;52.674;13.574;2023-10-08T03:05:54;7.57;;;2.13;;
80334;SDS011;69653;52.674;13.574;2023-10-08T03:08:22;7.28;;;2.17;;
80334;SDS011;69653;52.674;13.574;2023-10-08T03:10:48;4.90;;;2.00;;
80334;SDS011;69653;52.674;13.574;2023-10-08T03:13:20;5.68;;;1.73;;
80334;SDS011;69653;52.674;13.574;2023-10-08T03:15:46;9.25;;;2.28;;
80334;SDS011;69653;52.674;13.574;2023-10-08T03:18:22;11.90;;;2.05;;
80334;SDS011;69653;52.674;13.574;2023-10-08T03:20:48;7.80;;;1.98;;
80334;SDS011;69653;52.674;13.574;2023-10-08T03:23:14;8.55;;;2.03;;
80334;SDS011;69653;52.674;13.574;2023-10-08T03:26:01;5.85;;;2.05;;
80334;SDS011;69653;52.674;13.574;2023-10-08T03:28:35;5.20;;;1.63;;
80334;SDS011;69653;52.674;13.574;2023-10-08T03:31:02;8.52;;;1.80;;
80334;SDS011;69653;52.674;13.574;2023-10-08T03:33:33;6.03;;;1.95;;
80334;SDS011;69653;52.674;13.574;2023-10-08T03:36:03;5.40;;;1.55;;
80334;SDS011;69653;52.674;13.574;2023-10-08T03:38:52;6.03;;;2.10;;
80334;SDS011;69653;52.674;13.574;2023-10-08T03:41:24;7.03;;;1.97;;
80334;SDS011;69653;52.674;13.574;2023-10-08T03:43:53;6.70;;;1.88;;
80334;SDS011;69653;52.674;13.574;2023-10-08T03:46:31;9.65;;;1.75;;
80334;SDS011;69653;52.674;13.574;2023-10-08T03:48:57;8.13;;;2.03;;
80334;SDS011;69653;52.674;13.574;2023-10-08T03:51:29;7.18;;;2.00;;
80334;SDS011;69653;52.674;13.574;2023-10-08T03:54:00;6.63;;;1.70;;
80334;SDS011;69653;52.674;13.574;2023-10-08T03:56:34;5.50;;;1.77;;
80334;SDS011;69653;52.674;13.574;2023-10-08T03:59:01;6.25;;;1.92;;
80334;SDS011;69653;52.674;13.574;2023-10-08T04:01:37;9.52;;;2.65;;
80334;SDS011;69653;52.674;13.574;2023-10-08T04:04:05;8.23;;;2.20;;
80334;SDS011;69653;52.674;13.574;2023-10-08T04:06:31;10.60;;;2.53;;
80334;SDS011;69653;52.674;13.574;2023-10-08T04:09:03;8.70;;;2.47;;
80334;SDS011;69653;52.674;13.574;2023-10-08T04:11:48;8.43;;;2.58;;
80334;SDS011;69653;52.674;13.574;2023-10-08T04:14:15;6.43;;;2.00;;
80334;SDS011;69653;52.674;13.574;2023-10-08T04:16:43;12.27;;;2.30;;
80334;SDS011;69653;52.674;13.574;2023-10-08T04:19:09;7.13;;;2.90;;
80334;SDS011;69653;52.674;13.574;2023-10-08T04:21:35;7.50;;;2.10;;
80334;SDS011;69653;52.674;13.574;2023-10-08T04:24:00;7.03;;;2.20;;
80334;SDS011;69653;52.674;13.574;2023-10-08T04:26:33;5.75;;;1.92;;
80334;SDS011;69653;52.674;13.574;2023-10-08T04:28:59;7.75;;;2.30;;
80334;SDS011;69653;52.674;13.574;2023-10-08T04:31:31;8.68;;;2.85;;
80334;SDS011;69653;52.674;13.574;2023-10-08T04:34:03;9.00;;;2.45;;
80334;SDS011;69653;52.674;13.574;2023-10-08T04:36:40;6.45;;;2.05;;
80334;SDS011;69653;52.674;13.574;2023-10-08T04:39:05;7.18;;;2.58;;
80334;SDS011;69653;52.674;13.574;2023-10-08T04:41:39;8.88;;;1.80;;
80334;SDS011;69653;52.674;13.574;2023-10-08T04:44:08;7.40;;;2.05;;
80334;SDS011;69653;52.674;13.574;2023-10-08T04:46:44;6.78;;;1.85;;
80334;SDS011;69653;52.674;13.574;2023-10-08T04:49:16;5.13;;;2.05;;
80334;SDS011;69653;52.674;13.574;2023-10-08T04:52:03;10.15;;;2.58;;
80334;SDS011;69653;52.674;13.574;2023-10-08T04:54:40;8.27;;;2.38;;
80334;SDS011;69653;52.674;13.574;2023-10-08T04:57:16;6.47;;;2.22;;
80334;SDS011;69653;52.674;13.574;2023-10-08T04:59:41;5.85;;;2.38;;
80334;SDS011;69653;52.674;13.574;2023-10-08T05:02:08;7.70;;;2.55;;
80334;SDS011;69653;52.674;13.574;2023-10-08T05:04:59;7.68;;;2.65;;
80334;SDS011;69653;52.674;13.574;2023-10-08T05:07:37;10.23;;;3.22;;
80334;SDS011;69653;52.674;13.574;2023-10-08T05:10:12;8.60;;;3.22;;
80334;SDS011;69653;52.674;13.574;2023-10-08T05:12:50;12.13;;;4.07;;
80334;SDS011;69653;52.674;13.574;2023-10-08T05:15:36;12.20;;;5.45;;
80334;SDS011;69653;52.674;13.574;2023-10-08T05:18:06;8.95;;;3.30;;
80334;SDS011;69653;52.674;13.574;2023-10-08T05:20:49;9.25;;;3.17;;
80334;SDS011;69653;52.674;13.574;2023-10-08T05:23:16;10.80;;;3.05;;
80334;SDS011;69653;52.674;13.574;2023-10-08T05:25:49;8.32;;;2.67;;
80334;SDS011;69653;52.674;13.574;2023-10-08T05:28:23;7.50;;;3.13;;
80334;SDS011;69653;52.674;13.574;2023-10-08T05:30:52;8.90;;;3.30;;
80334;SDS011;69653;52.674;13.574;2023-10-08T05:33:40;8.88;;;3.33;;
80334;SDS011;69653;52.674;13.574;2023-10-08T05:36:24;10.95;;;3.08;;
80334;SDS011;69653;52.674;13.574;2023-10-08T05:39:08;7.63;;;2.72;;
80334;SDS011;69653;52.674;13.574;2023-10-08T05:41:55;6.57;;;2.05;;
80334;SDS011;69653;52.674;13.574;2023-10-08T05:44:39;7.05;;;2.67;;
80334;SDS011;69653;52.674;13.574;2023-10-08T05:47:10;5.70;;;2.28;;
80334;SDS011;69653;52.674;13.574;2023-10-08T05:49:54;6.25;;;2.03;;
80334;SDS011;69653;52.674;13.574;2023-10-08T05:52:40;6.68;;;2.50;;
80334;SDS011;69653;52.674;13.574;2023-10-08T05:55:30;4.88;;;2.45;;
80334;SDS011;69653;52.674;13.574;2023-10-08T05:58:04;9.13;;;2.92;;
80334;SDS011;69653;52.674;13.574;2023-10-08T06:00:49;5.72;;;2.45;;
80334;SDS011;69653;52.674;13.574;2023-10-08T06:03:16;15.85;;;4.28;;
80334;SDS011;69653;52.674;13.574;2023-10-08T06:06:03;27.98;;;9.60;;
80334;SDS011;69653;52.674;13.574;2023-10-08T06:08:38;11.25;;;4.45;;
80334;SDS011;69653;52.674;13.574;2023-10-08T06:11:15;5.97;;;2.67;;
80334;SDS011;69653;52.674;13.574;2023-10-08T06:14:01;5.93;;;1.80;;
80334;SDS011;69653;52.674;13.574;2023-10-08T06:16:28;4.35;;;1.90;;
80334;SDS011;69653;52.674;13.574;2023-10-08T06:19:06;8.07;;;2.50;;
80334;SDS011;69653;52.674;13.574;2023-10-08T06:21:31;7.90;;;2.60;;
80334;SDS011;69653;52.674;13.574;2023-10-08T06:23:57;4.77;;;1.90;;
80334;SDS011;69653;52.674;13.574;2023-10-08T06:26:22;5.43;;;1.27;;
80334;SDS011;69653;52.674;13.574;2023-10-08T06:28:50;6.15;;;2.00;;
80334;SDS011;69653;52.674;13.574;2023-10-08T06:31:22;5.10;;;1.50;;
80334;SDS011;69653;52.674;13.574;2023-10-08T06:33:50;5.78;;;1.40;;
80334;SDS011;69653;52.674;13.574;2023-10-08T06:36:15;5.10;;;1.30;;
80334;SDS011;69653;52.674;13.574;2023-10-08T06:38:41;4.43;;;1.17;;
80334;SDS011;69653;52.674;13.574;2023-10-08T06:41:09;5.20;;;1.50;;
80334;SDS011;69653;52.674;13.574;2023-10-08T06:43:39;3.92;;;1.52;;
80334;SDS011;69653;52.674;13.574;2023-10-08T06:46:08;3.83;;;1.17;;
80334;SDS011;69653;52.674;13.574;2023-10-08T06:48:37;4.70;;;1.25;;
80334;SDS011;69653;52.674;13.574;2023-10-08T06:51:07;5.43;;;1.52;;
80334;SDS011;69653;52.674;13.574;2023-10-08T06:53:37;4.10;;;1.30;;
80334;SDS011;69653;52.674;13.574;2023-10-08T06:56:03;4.88;;;1.48;;
80334;SDS011;69653;52.674;13.574;2023-10-08T06:58:32;6.00;;;2.05;;
80334;SDS011;69653;52.674;13.574;2023-10-08T07:00:57;5.95;;;2.00;;
80334;SDS011;69653;52.674;13.574;2023-10-08T07:03:23;21.10;;;11.80;;
80334;SDS011;69653;52.674;13.574;2023-10-08T07:05:49;16.33;;;6.28;;
80334;SDS011;69653;52.674;13.574;2023-10-08T07:08:28;4.80;;;1.90;;
80334;SDS011;69653;52.674;13.574;2023-10-08T07:10:56;5.13;;;1.25;;
80334;SDS011;69653;52.674;13.574;2023-10-08T07:13:24;4.70;;;1.13;;
80334;SDS011;69653;52.674;13.574;2023-10-08T07:15:50;2.78;;;1.20;;
80334;SDS011;69653;52.674;13.574;2023-10-08T07:18:17;3.60;;;1.15;;
80334;SDS011;69653;52.674;13.574;2023-10-08T07:20:53;3.20;;;1.15;;
80334;SDS011;69653;52.674;13.574;2023-10-08T07:23:20;2.50;;;1.00;;
80334;SDS011;69653;52.674;13.574;2023-10-08T07:26:02;3.03;;;0.88;;
80334;SDS011;69653;52.674;13.574;2023-10-08T07:28:40;4.38;;;1.15;;
80334;SDS011;69653;52.674;13.574;2023-10-08T07:31:15;3.45;;;0.95;;
80334;SDS011;69653;52.674;13.574;2023-10-08T07:33:42;3.58;;;0.90;;
80334;SDS011;69653;52.674;13.574;2023-10-08T07:36:09;3.70;;;1.20;;
80334;SDS011;69653;52.674;13.574;2023-10-08T07:38:39;3.92;;;1.30;;
80334;SDS011;69653;52.674;13.574;2023-10-08T07:41:11;3.78;;;1.20;;
80334;SDS011;69653;52.674;13.574;2023-10-08T07:43:40;4.00;;;1.00;;
80334;SDS011;69653;52.674;13.574;2023-10-08T07:46:09;3.38;;;1.00;;
80334;SDS011;69653;52.674;13.574;2023-10-08T07:48:35;4.80;;;1.25;;
80334;SDS011;69653;52.674;13.574;2023-10-08T07:51:02;3.83;;;1.10;;
80334;SDS011;69653;52.674;13.574;2023-10-08T07:53:28;4.03;;;1.00;;
80334;SDS011;69653;52.674;13.574;2023-10-08T07:56:05;2.83;;;0.93;;
80334;SDS011;69653;52.674;13.574;2023-10-08T07:58:36;2.58;;;0.82;;
80334;SDS011;69653;52.674;13.574;2023-10-08T08:01:11;2.15;;;0.70;;
80334;SDS011;69653;52.674;13.574;2023-10-08T08:03:39;2.50;;;0.75;;
80334;SDS011;69653;52.674;13.574;2023-10-08T08:06:10;3.53;;;1.13;;
80334;SDS011;69653;52.674;13.574;2023-10-08T08:08:35;3.38;;;0.93;;
80334;SDS011;69653;52.674;13.574;2023-10-08T08:11:02;2.50;;;0.77;;
80334;SDS011;69653;52.674;13.574;2023-10-08T08:13:30;3.22;;;0.80;;
80334;SDS011;69653;52.674;13.574;2023-10-08T08:15:58;3.55;;;0.90;;
80334;SDS011;69653;52.674;13.574;2023-10-08T08:18:34;2.90;;;0.77;;
80334;SDS011;69653;52.674;13.574;2023-10-08T08:21:00;2.70;;;0.82;;
80334;SDS011;69653;52.674;13.574;2023-10-08T08:23:27;2.78;;;0.93;;
80334;SDS011;69653;52.674;13.574;2023-10-08T08:25:56;4.95;;;1.20;;
80334;SDS011;69653;52.674;13.574;2023-10-08T08:28:31;3.70;;;1.00;;
80334;SDS011;69653;52.674;13.574;2023-10-08T08:31:01;2.85;;;0.70;;
80334;SDS011;69653;52.674;13.574;2023-10-08T08:33:29;2.55;;;0.80;;
80334;SDS011;69653;52.674;13.574;2023-10-08T08:36:15;4.38;;;1.38;;
80334;SDS011;69653;52.674;13.574;2023-10-08T08:38:40;2.70;;;0.80;;
80334;SDS011;69653;52.674;13.574;2023-10-08T08:41:06;3.23;;;1.03;;
80334;SDS011;69653;52.674;13.574;2023-10-08T08:43:35;1.90;;;0.63;;
80334;SDS011;69653;52.674;13.574;2023-10-08T08:46:04;2.92;;;0.63;;
80334;SDS011;69653;52.674;13.574;2023-10-08T08:48:35;2.75;;;0.80;;
80334;SDS011;69653;52.674;13.574;2023-10-08T08:51:01;2.30;;;0.80;;
80334;SDS011;69653;52.674;13.574;2023-10-08T08:53:26;3.30;;;0.90;;
80334;SDS011;69653;52.674;13.574;2023-10-08T08:55:52;1.53;;;0.50;;
80334;SDS011;69653;52.674;13.574;2023-10-08T08:58:19;5.15;;;1.40;;
80334;SDS011;69653;52.674;13.574;2023-10-08T09:00:47;3.00;;;1.13;;
80334;SDS011;69653;52.674;13.574;2023-10-08T09:03:12;3.30;;;0.90;;
80334;SDS011;69653;52.674;13.574;2023-10-08T09:05:38;2.40;;;0.60;;
80334;SDS011;69653;52.674;13.574;2023-10-08T09:08:05;2.25;;;0.70;;
80334;SDS011;69653;52.674;13.574;2023-10-08T09:10:32;1.88;;;0.52;;
80334;SDS011;69653;52.674;13.574;2023-10-08T09:13:18;2.63;;;0.70;;
80334;SDS011;69653;52.674;13.574;2023-10-08T09:15:46;2.90;;;0.60;;
80334;SDS011;69653;52.674;13.574;2023-10-08T09:18:11;2.95;;;0.70;;
80334;SDS011;69653;52.674;13.574;2023-10-08T09:20:39;2.80;;;0.73;;
80334;SDS011;69653;52.674;13.574;2023-10-08T09:23:13;2.22;;;0.73;;
80334;SDS011;69653;52.674;13.574;2023-10-08T09:25:43;2.70;;;0.85;;
80334;SDS011;69653;52.674;13.574;2023-10-08T09:28:09;3.13;;;0.80;;
80334;SDS011;69653;52.674;13.574;2023-10-08T09:30:38;3.28;;;0.75;;
80334;SDS011;69653;52.674;13.574;2023-10-08T09:33:08;7.75;;;3.60;;
80334;SDS011;69653;52.674;13.574;2023-10-08T09:35:34;2.83;;;0.77;;
80334;SDS011;69653;52.674;13.574;2023-10-08T09:38:05;2.67;;;0.88;;
80334;SDS011;69653;52.674;13.574;2023-10-08T09:40:38;3.28;;;0.70;;
80334;SDS011;69653;52.674;13.574;2023-10-08T09:43:12;2.03;;;0.60;;
80334;SDS011;69653;52.674;13.574;2023-10-08T09:48:08;7.60;;;3.13;;
80334;SDS011;69653;52.674;13.574;2023-10-08T09:53:07;2.03;;;0.60;;
80334;SDS011;69653;52.674;13.574;2023-10-08T09:55:40;2.88;;;0.52;;
80334;SDS011;69653;52.674;13.574;2023-10-08T09:58:19;1.80;;;0.52;;
80334;SDS011;69653;52.674;13.574;2023-10-08T10:00:45;2.83;;;0.82;;
80334;SDS011;69653;52.674;13.574;2023-10-08T10:03:13;2.90;;;1.20;;
80334;SDS011;69653;52.674;13.574;2023-10-08T10:05:39;2.45;;;1.02;;
80334;SDS011;69653;52.674;13.574;2023-10-08T10:08:07;2.08;;;0.57;;
80334;SDS011;69653;52.674;13.574;2023-10-08T10:10:35;1.20;;;0.32;;
80334;SDS011;69653;52.674;13.574;2023-10-08T10:13:08;2.35;;;0.57;;
80334;SDS011;69653;52.674;13.574;2023-10-08T10:15:38;1.73;;;0.70;;
80334;SDS011;69653;52.674;13.574;2023-10-08T10:18:12;1.02;;;0.30;;
80334;SDS011;69653;52.674;13.574;2023-10-08T10:20:41;1.88;;;0.60;;
80334;SDS011;69653;52.674;13.574;2023-10-08T10:29:33;3.53;;;0.63;;
80334;SDS011;69653;52.674;13.574;2023-10-08T10:31:54;1.33;;;0.40;;
80334;SDS011;69653;52.674;13.574;2023-10-08T10:36:58;3.17;;;0.70;;
80334;SDS011;69653;52.674;13.574;2023-10-08T10:39:27;3.75;;;0.85;;
80334;SDS011;69653;52.674;13.574;2023-10-08T10:41:58;3.33;;;0.80;;
80334;SDS011;69653;52.674;13.574;2023-10-08T10:44:32;2.58;;;0.50;;
80334;SDS011;69653;52.674;13.574;2023-10-08T10:47:02;3.67;;;0.80;;
80334;SDS011;69653;52.674;13.574;2023-10-08T10:49:43;2.58;;;0.68;;
80334;SDS011;69653;52.674;13.574;2023-10-08T10:52:16;1.85;;;0.70;;
80334;SDS011;69653;52.674;13.574;2023-10-08T10:54:51;3.03;;;1.15;;
80334;SDS011;69653;52.674;13.574;2023-10-08T10:57:24;2.70;;;0.70;;
80334;SDS011;69653;52.674;13.574;2023-10-08T11:00:00;2.47;;;0.50;;
80334;SDS011;69653;52.674;13.574;2023-10-08T11:02:43;2.15;;;0.55;;
80334;SDS011;69653;52.674;13.574;2023-10-08T11:05:13;2.70;;;0.65;;
80334;SDS011;69653;52.674;13.574;2023-10-08T11:07:44;2.67;;;0.77;;
80334;SDS011;69653;52.674;13.574;2023-10-08T11:10:11;2.45;;;0.73;;
80334;SDS011;69653;52.674;13.574;2023-10-08T11:12:40;2.53;;;0.60;;
80334;SDS011;69653;52.674;13.574;2023-10-08T11:15:11;3.40;;;0.65;;
80334;SDS011;69653;52.674;13.574;2023-10-08T11:17:42;2.05;;;0.63;;
80334;SDS011;69653;52.674;13.574;2023-10-08T11:22:50;2.38;;;0.57;;
80334;SDS011;69653;52.674;13.574;2023-10-08T11:25:20;3.25;;;0.52;;
80334;SDS011;69653;52.674;13.574;2023-10-08T11:27:48;2.63;;;0.70;;
80334;SDS011;69653;52.674;13.574;2023-10-08T11:30:17;2.53;;;0.80;;
80334;SDS011;69653;52.674;13.574;2023-10-08T11:32:43;1.70;;;0.68;;
80334;SDS011;69653;52.674;13.574;2023-10-08T11:35:14;1.67;;;0.73;;
80334;SDS011;69653;52.674;13.574;2023-10-08T11:37:44;3.08;;;0.80;;
80334;SDS011;69653;52.674;13.574;2023-10-08T11:40:22;2.63;;;0.75;;
80334;SDS011;69653;52.674;13.574;2023-10-08T11:42:53;1.65;;;0.40;;
80334;SDS011;69653;52.674;13.574;2023-10-08T11:45:22;2.25;;;0.63;;
80334;SDS011;69653;52.674;13.574;2023-10-08T11:50:28;2.53;;;0.60;;
80334;SDS011;69653;52.674;13.574;2023-10-08T11:52:57;1.65;;;0.52;;
80334;SDS011;69653;52.674;13.574;2023-10-08T11:55:31;2.30;;;0.52;;
80334;SDS011;69653;52.674;13.574;2023-10-08T11:58:00;1.67;;;0.55;;
80334;SDS011;69653;52.674;13.574;2023-10-08T12:00:34;2.60;;;1.00;;
80334;SDS011;69653;52.674;13.574;2023-10-08T12:03:01;2.08;;;0.60;;
80334;SDS011;69653;52.674;13.574;2023-10-08T12:05:26;2.17;;;0.60;;
80334;SDS011;69653;52.674;13.574;2023-10-08T12:07:54;2.00;;;0.60;;
80334;SDS011;69653;52.674;13.574;2023-10-08T12:10:23;1.65;;;0.47;;
80334;SDS011;69653;52.674;13.574;2023-10-08T12:12:52;1.70;;;0.63;;
80334;SDS011;69653;52.674;13.574;2023-10-08T12:15:21;2.42;;;0.50;;
80334;SDS011;69653;52.674;13.574;2023-10-08T12:17:50;1.90;;;0.63;;
80334;SDS011;69653;52.674;13.574;2023-10-08T12:20:38;1.88;;;0.45;;
80334;SDS011;69653;52.674;13.574;2023-10-08T12:23:04;2.50;;;0.70;;
80334;SDS011;69653;52.674;13.574;2023-10-08T12:25:30;3.40;;;0.70;;
80334;SDS011;69653;52.674;13.574;2023-10-08T12:27:59;2.63;;;0.57;;
80334;SDS011;69653;52.674;13.574;2023-10-08T12:30:29;2.10;;;0.57;;
80334;SDS011;69653;52.674;13.574;2023-10-08T12:32:57;3.85;;;1.02;;
80334;SDS011;69653;52.674;13.574;2023-10-08T12:35:24;3.60;;;0.80;;
80334;SDS011;69653;52.674;13.574;2023-10-08T12:37:50;1.93;;;0.50;;
80334;SDS011;69653;52.674;13.574;2023-10-08T12:40:15;2.57;;;0.77;;
80334;SDS011;69653;52.674;13.574;2023-10-08T12:42:52;2.28;;;0.60;;
80334;SDS011;69653;52.674;13.574;2023-10-08T12:45:18;6.07;;;1.27;;
80334;SDS011;69653;52.674;13.574;2023-10-08T12:47:47;2.85;;;0.80;;
80334;SDS011;69653;52.674;13.574;2023-10-08T12:50:14;1.67;;;0.52;;
80334;SDS011;69653;52.674;13.574;2023-10-08T12:52:41;2.10;;;0.60;;
80334;SDS011;69653;52.674;13.574;2023-10-08T12:55:17;2.67;;;0.60;;
80334;SDS011;69653;52.674;13.574;2023-10-08T12:57:48;2.03;;;0.52;;
80334;SDS011;69653;52.674;13.574;2023-10-08T13:00:20;2.95;;;1.00;;
80334;SDS011;69653;52.674;13.574;2023-10-08T13:02:48;2.13;;;0.60;;
80334;SDS011;69653;52.674;13.574;2023-10-08T13:05:18;2.15;;;0.80;;
80334;SDS011;69653;52.674;13.574;2023-10-08T13:07:51;1.95;;;0.60;;
80334;SDS011;69653;52.674;13.574;2023-10-08T13:10:16;2.40;;;0.67;;
80334;SDS011;69653;52.674;13.574;2023-10-08T13:12:41;1.70;;;0.40;;
80334;SDS011;69653;52.674;13.574;2023-10-08T13:15:07;2.47;;;0.80;;
80334;SDS011;69653;52.674;13.574;2023-10-08T13:17:33;1.45;;;0.43;;
80334;SDS011;69653;52.674;13.574;2023-10-08T13:19:58;1.73;;;0.50;;
80334;SDS011;69653;52.674;13.574;2023-10-08T13:22:23;1.47;;;0.50;;
80334;SDS011;69653;52.674;13.574;2023-10-08T13:24:49;2.30;;;0.70;;
80334;SDS011;69653;52.674;13.574;2023-10-08T13:27:14;7.70;;;3.13;;
80334;SDS011;69653;52.674;13.574;2023-10-08T13:29:41;5.88;;;2.20;;
80334;SDS011;69653;52.674;13.574;2023-10-08T13:32:08;4.28;;;1.23;;
80334;SDS011;69653;52.674;13.574;2023-10-08T13:34:42;4.38;;;1.40;;
80334;SDS011;69653;52.674;13.574;2023-10-08T13:37:08;3.90;;;0.80;;
80334;SDS011;69653;52.674;13.574;2023-10-08T13:39:33;3.53;;;0.90;;
80334;SDS011;69653;52.674;13.574;2023-10-08T13:42:00;2.53;;;0.65;;
80334;SDS011;69653;52.674;13.574;2023-10-08T13:44:26;1.65;;;0.50;;
80334;SDS011;69653;52.674;13.574;2023-10-08T13:46:55;1.83;;;0.68;;
80334;SDS011;69653;52.674;13.574;2023-10-08T13:49:23;2.45;;;1.05;;
80334;SDS011;69653;52.674;13.574;2023-10-08T13:51:48;4.15;;;1.05;;
80334;SDS011;69653;52.674;13.574;2023-10-08T13:54:21;2.72;;;0.85;;
80334;SDS011;69653;52.674;13.574;2023-10-08T13:56:46;2.05;;;0.80;;
80334;SDS011;69653;52.674;13.574;2023-10-08T13:59:15;3.80;;;0.95;;
80334;SDS011;69653;52.674;13.574;2023-10-08T14:01:42;3.15;;;0.88;;
80334;SDS011;69653;52.674;13.574;2023-10-08T14:04:11;5.13;;;2.15;;
80334;SDS011;69653;52.674;13.574;2023-10-08T14:06:37;4.38;;;1.52;;
80334;SDS011;69653;52.674;13.574;2023-10-08T14:09:05;5.45;;;1.55;;
80334;SDS011;69653;52.674;13.574;2023-10-08T14:11:34;6.13;;;2.00;;
80334;SDS011;69653;52.674;13.574;2023-10-08T14:14:00;4.32;;;1.42;;
80334;SDS011;69653;52.674;13.574;2023-10-08T14:16:32;9.98;;;3.92;;
80334;SDS011;69653;52.674;13.574;2023-10-08T14:18:59;3.75;;;1.08;;
80334;SDS011;69653;52.674;13.574;2023-10-08T14:21:25;2.15;;;0.82;;
80334;SDS011;69653;52.674;13.574;2023-10-08T14:23:58;2.35;;;0.70;;
80334;SDS011;69653;52.674;13.574;2023-10-08T14:26:28;2.05;;;0.52;;
80334;SDS011;69653;52.674;13.574;2023-10-08T14:29:01;2.28;;;0.60;;
80334;SDS011;69653;52.674;13.574;2023-10-08T14:31:32;2.70;;;0.80;;
80334;SDS011;69653;52.674;13.574;2023-10-08T14:33:58;2.95;;;0.73;;
80334;SDS011;69653;52.674;13.574;2023-10-08T14:36:30;4.15;;;1.75;;
80334;SDS011;69653;52.674;13.574;2023-10-08T14:39:17;2.95;;;1.05;;
80334;SDS011;69653;52.674;13.574;2023-10-08T14:42:02;2.60;;;0.80;;
80334;SDS011;69653;52.674;13.574;2023-10-08T14:44:47;3.17;;;0.70;;
80334;SDS011;69653;52.674;13.574;2023-10-08T14:47:14;3.80;;;1.10;;
80334;SDS011;69653;52.674;13.574;2023-10-08T14:49:40;6.47;;;2.08;;
80334;SDS011;69653;52.674;13.574;2023-10-08T14:52:07;3.03;;;0.73;;
80334;SDS011;69653;52.674;13.574;2023-10-08T14:54:32;2.43;;;0.90;;
80334;SDS011;69653;52.674;13.574;2023-10-08T14:56:58;2.90;;;0.68;;
80334;SDS011;69653;52.674;13.574;2023-10-08T14:59:24;3.13;;;1.00;;
80334;SDS011;69653;52.674;13.574;2023-10-08T15:01:53;2.20;;;0.73;;
80334;SDS011;69653;52.674;13.574;2023-10-08T15:04:18;3.83;;;0.80;;
80334;SDS011;69653;52.674;13.574;2023-10-08T15:06:43;3.47;;;0.80;;
80334;SDS011;69653;52.674;13.574;2023-10-08T15:09:09;2.42;;;0.55;;
80334;SDS011;69653;52.674;13.574;2023-10-08T15:11:34;3.63;;;0.73;;
80334;SDS011;69653;52.674;13.574;2023-10-08T15:14:01;3.00;;;0.80;;